Time;durP1;ratioP1;P1;durP2;ratioP2;P2;SDS_P1;SDS_P2;PMS_P1;PMS_P2;Temp;Humidity;BMP_temperature;BMP_pressure;BME280_temperature;BME280_humidity;BME280_pressure;Samples;Min_cycle;Max_cycle;Signal;HPM_P1;HPM_P2
2021/11/19 00:00:43;;;;;;;71.53;48.45;;;2.70;90.90;;;;;;5134535;27;20453;-76
2021/11/19 00:03:09;;;;;;;74.53;50.38;;;2.70;91.00;;;;;;5134816;28;20085;-76
2021/11/19 00:05:35;;;;;;;73.82;50.60;;;2.60;91.10;;;;;;5097948;28;20161;-75
2021/11/19 00:08:03;;;;;;;84.00;54.42;;;2.60;91.40;;;;;;5098803;28;20501;-76
2021/11/19 00:10:30;;;;;;;87.55;54.88;;;2.70;91.90;;;;;;5101290;28;20040;-76
2021/11/19 00:12:55;;;;;;;85.90;54.15;;;2.70;92.10;;;;;;5113291;28;20027;-76
2021/11/19 00:15:22;;;;;;;77.57;50.78;;;2.90;91.90;;;;;;5095008;28;20118;-77
2021/11/19 00:17:47;;;;;;;72.00;47.08;;;2.90;91.60;;;;;;5091757;28;20056;-77
2021/11/19 00:20:16;;;;;;;72.22;46.05;;;3.00;91.40;;;;;;5112886;28;20032;-76
2021/11/19 00:22:41;;;;;;;74.05;47.28;;;3.10;91.10;;;;;;5102921;28;20032;-76
2021/11/19 00:25:08;;;;;;;74.68;46.95;;;3.10;90.90;;;;;;5117555;28;20376;-76
2021/11/19 00:27:37;;;;;;;75.25;46.33;;;3.20;90.90;;;;;;5095591;28;20032;-76
2021/11/19 00:30:06;;;;;;;73.80;46.70;;;3.20;91.00;;;;;;5113341;28;20077;-76
2021/11/19 00:32:32;;;;;;;74.00;46.05;;;3.10;91.10;;;;;;5115439;28;20027;-75
2021/11/19 00:34:58;;;;;;;73.10;47.80;;;3.10;91.30;;;;;;5104012;28;20024;-76
2021/11/19 00:37:24;;;;;;;80.10;48.58;;;3.10;91.30;;;;;;5088193;28;20059;-76
2021/11/19 00:39:50;;;;;;;79.32;50.25;;;3.10;91.20;;;;;;5112267;28;20035;-77
2021/11/19 00:42:15;;;;;;;80.93;48.35;;;3.10;91.10;;;;;;5099013;28;20036;-78
2021/11/19 00:44:41;;;;;;;73.03;46.95;;;3.10;91.40;;;;;;5122471;28;20020;-76
2021/11/19 00:47:08;;;;;;;76.47;47.65;;;3.10;91.80;;;;;;5099008;28;20438;-76
2021/11/19 00:49:36;;;;;;;75.65;49.17;;;3.20;91.90;;;;;;5116805;27;20071;-78
2021/11/19 00:52:04;;;;;;;79.13;47.67;;;3.20;91.90;;;;;;5117089;27;20762;-77
2021/11/19 00:54:30;;;;;;;72.35;47.22;;;3.30;92.00;;;;;;5116568;28;20035;-77
2021/11/19 00:57:07;;;;;;;89.25;52.85;;;3.30;91.80;;;;;;5116532;28;20423;-77
2021/11/19 00:59:35;;;;;;;99.43;60.35;;;3.30;91.80;;;;;;5116819;28;20478;-76
2021/11/19 01:02:14;;;;;;;98.03;60.28;;;3.30;91.80;;;;;;5098699;28;20035;-77
2021/11/19 01:04:41;;;;;;;100.82;61.75;;;3.30;91.90;;;;;;5097525;28;20119;-77
2021/11/19 01:07:08;;;;;;;99.32;61.22;;;3.30;92.10;;;;;;5097696;28;20045;-77
2021/11/19 01:09:39;;;;;;;100.90;60.15;;;3.30;92.40;;;;;;5096417;28;20050;-77
2021/11/19 01:12:08;;;;;;;93.00;59.97;;;3.30;92.60;;;;;;5130411;27;20461;-77
2021/11/19 01:15:07;;;;;;;91.93;57.45;;;3.30;92.60;;;;;;5118790;28;20028;-77
2021/11/19 01:17:45;;;;;;;79.18;51.17;;;3.30;92.80;;;;;;5102987;28;20030;-77
2021/11/19 01:20:30;;;;;;;84.25;51.70;;;3.30;92.90;;;;;;5131417;27;20449;-75
2021/11/19 01:22:58;;;;;;;83.82;50.92;;;3.30;93.00;;;;;;5136945;27;20036;-76
2021/11/19 01:25:28;;;;;;;77.88;49.55;;;3.30;93.30;;;;;;5118574;27;20035;-77
2021/11/19 01:27:54;;;;;;;83.90;50.60;;;3.40;93.70;;;;;;5125501;27;20080;-77
2021/11/19 01:30:25;;;;;;;84.25;50.45;;;3.40;93.60;;;;;;5118118;27;20122;-77
2021/11/19 01:32:52;;;;;;;88.72;54.55;;;3.40;93.80;;;;;;5118036;27;20072;-76
2021/11/19 01:35:18;;;;;;;93.47;56.20;;;3.50;93.60;;;;;;5133456;27;20019;-75
2021/11/19 01:37:44;;;;;;;105.97;60.20;;;3.50;93.70;;;;;;5100623;27;20024;-76
2021/11/19 01:40:13;;;;;;;97.45;61.58;;;3.40;93.90;;;;;;5098113;28;20032;-77
2021/11/19 01:42:42;;;;;;;104.32;62.17;;;3.40;94.00;;;;;;5101577;27;20497;-76
2021/11/19 01:45:12;;;;;;;100.63;59.97;;;3.40;94.10;;;;;;5099282;28;20035;-77
2021/11/19 01:47:41;;;;;;;97.43;58.28;;;3.50;94.30;;;;;;5116232;28;20035;-76
2021/11/19 01:50:18;;;;;;;95.20;57.10;;;3.50;94.20;;;;;;5097989;28;20042;-76
2021/11/19 01:52:50;;;;;;;93.93;54.40;;;3.50;94.20;;;;;;5096989;28;20126;-76
2021/11/19 01:55:24;;;;;;;86.30;53.22;;;3.50;94.30;;;;;;5097344;28;20500;-75
2021/11/19 01:57:55;;;;;;;86.03;51.85;;;3.50;94.50;;;;;;5098717;28;20038;-75
2021/11/19 02:00:28;;;;;;;94.25;53.67;;;3.50;94.70;;;;;;5097593;28;20069;-75
2021/11/19 02:02:56;;;;;;;90.85;54.15;;;3.60;94.50;;;;;;5117095;28;20477;-75
2021/11/19 02:05:36;;;;;;;91.57;52.45;;;3.60;94.30;;;;;;5103347;28;20089;-76
2021/11/19 02:08:23;;;;;;;94.25;51.40;;;3.70;94.30;;;;;;5084024;28;20055;-77
2021/11/19 02:11:17;;;;;;;88.65;49.10;;;3.60;94.10;;;;;;5102988;28;20032;-77
2021/11/19 02:13:52;;;;;;;85.65;47.75;;;3.70;94.10;;;;;;5130240;27;20066;-76
2021/11/19 02:16:23;;;;;;;85.38;49.38;;;3.70;94.30;;;;;;5077002;28;20470;-76
2021/11/19 02:18:59;;;;;;;89.55;50.30;;;3.80;94.40;;;;;;5095468;28;20059;-76
2021/11/19 02:21:34;;;;;;;;;;;3.80;94.30;;;;;;5107676;27;20430;-76
2021/11/19 02:24:17;;;;;;;96.45;52.67;;;3.80;93.60;;;;;;5135785;27;20272;-75
2021/11/19 02:26:47;;;;;;;101.18;56.92;;;3.80;94.10;;;;;;5117281;27;20066;-76
2021/11/19 02:29:13;;;;;;;93.85;56.30;;;3.80;94.50;;;;;;5109694;28;20383;-77
2021/11/19 02:31:54;;;;;;;106.60;60.40;;;3.80;94.80;;;;;;5115153;28;20031;-76
2021/11/19 02:34:22;;;;;;;106.65;60.67;;;3.90;94.20;;;;;;5115273;28;20103;-76
2021/11/19 02:36:57;;;;;;;105.63;59.75;;;3.90;94.00;;;;;;5114923;27;20027;-76
2021/11/19 02:39:33;;;;;;;99.38;59.63;;;4.00;93.80;;;;;;5098070;28;20024;-76
2021/11/19 02:42:08;;;;;;;116.35;63.03;;;4.10;93.70;;;;;;5096597;28;20032;-75
2021/11/19 02:44:35;;;;;;;113.30;62.37;;;4.10;93.40;;;;;;5096597;28;20028;-76
2021/11/19 02:47:08;;;;;;;105.82;62.60;;;4.00;93.60;;;;;;5095946;28;20028;-75
2021/11/19 02:49:34;;;;;;;110.22;63.25;;;4.00;94.00;;;;;;5104289;27;20035;-74
2021/11/19 02:52:01;;;;;;;110.00;59.22;;;4.00;94.20;;;;;;5106748;28;20030;-75
2021/11/19 02:54:30;;;;;;;101.35;58.22;;;4.00;94.10;;;;;;5096610;28;20422;-75
2021/11/19 02:56:57;;;;;;;104.78;54.67;;;4.10;94.10;;;;;;5114724;28;20024;-75
2021/11/19 02:59:24;;;;;;;112.75;59.20;;;4.10;94.10;;;;;;5096322;28;20028;-76
2021/11/19 03:01:54;;;;;;;114.07;60.90;;;4.10;94.00;;;;;;5102600;28;20024;-76
2021/11/19 03:04:33;;;;;;;97.30;54.47;;;4.00;93.70;;;;;;5117062;28;20099;-79
2021/11/19 03:07:00;;;;;;;94.82;53.30;;;4.00;94.00;;;;;;5097529;28;20073;-86
2021/11/19 03:09:36;;;;;;;97.57;52.50;;;4.00;94.30;;;;;;5124186;27;20042;-85
2021/11/19 03:12:03;;;;;;;94.70;52.47;;;4.00;94.30;;;;;;5096843;27;20042;-86
2021/11/19 03:14:29;;;;;;;96.00;50.70;;;3.90;94.50;;;;;;5102542;27;20084;-82
2021/11/19 03:16:55;;;;;;;94.22;51.58;;;3.90;94.80;;;;;;5126204;27;20027;-84
2021/11/19 03:19:21;;;;;;;98.95;53.28;;;3.90;95.20;;;;;;5115750;27;20031;-83
2021/11/19 03:21:48;;;;;;;95.72;51.00;;;4.00;95.40;;;;;;5119319;27;20053;-78
2021/11/19 03:24:16;;;;;;;94.57;51.92;;;3.90;95.50;;;;;;5102123;27;20425;-84
2021/11/19 03:26:44;;;;;;;98.30;51.47;;;4.00;95.90;;;;;;5110069;28;20035;-86
2021/11/19 03:29:10;;;;;;;95.03;51.60;;;4.00;95.90;;;;;;5120475;27;20030;-86
2021/11/19 03:31:37;;;;;;;92.00;50.95;;;4.00;96.10;;;;;;5117225;28;20085;-85
2021/11/19 03:34:04;;;;;;;99.60;52.80;;;4.10;96.40;;;;;;5097928;28;20019;-86
2021/11/19 03:36:31;;;;;;;94.45;54.25;;;4.10;96.20;;;;;;5096976;28;20024;-88
2021/11/19 03:38:59;;;;;;;90.45;51.60;;;4.10;96.30;;;;;;5097320;28;20027;-85
2021/11/19 03:41:29;;;;;;;88.00;48.95;;;4.20;96.10;;;;;;5080894;28;20032;-87
2021/11/19 03:44:00;;;;;;;85.93;48.30;;;4.20;96.00;;;;;;5100331;28;20028;-85
2021/11/19 03:46:31;;;;;;;89.22;49.58;;;4.40;95.60;;;;;;5080587;28;20055;-87
2021/11/19 03:48:56;;;;;;;85.13;51.60;;;4.40;94.90;;;;;;5076066;28;20020;-88
2021/11/19 03:51:30;;;;;;;97.72;56.85;;;4.50;94.70;;;;;;5075935;28;20504;-90
2021/11/19 03:53:56;;;;;;;101.82;57.10;;;4.50;94.10;;;;;;5097234;28;20031;-87
2021/11/19 03:56:22;;;;;;;103.80;59.90;;;4.50;93.80;;;;;;5091246;28;20024;-87
2021/11/19 03:58:48;;;;;;;104.40;57.38;;;4.40;94.20;;;;;;5086675;28;20089;-87
2021/11/19 04:01:19;;;;;;;109.18;59.80;;;4.40;94.30;;;;;;5109897;28;20024;-89
2021/11/19 04:03:47;;;;;;;106.00;59.88;;;4.30;94.50;;;;;;5104700;28;20043;-89
2021/11/19 04:06:14;;;;;;;98.00;59.25;;;4.30;94.60;;;;;;5082864;28;20106;-85
2021/11/19 04:08:39;;;;;;;103.63;62.22;;;4.30;94.80;;;;;;5099810;28;20127;-86
2021/11/19 04:11:07;;;;;;;95.25;55.83;;;4.30;94.70;;;;;;5101431;28;20051;-84
2021/11/19 04:13:34;;;;;;;101.03;57.80;;;4.30;94.70;;;;;;5098297;28;20029;-86
2021/11/19 04:16:05;;;;;;;94.40;53.47;;;4.30;94.70;;;;;;5101922;28;20073;-88
2021/11/19 04:18:31;;;;;;;105.65;56.47;;;4.20;94.70;;;;;;5083019;28;20030;-86
2021/11/19 04:20:58;;;;;;;104.75;57.08;;;4.20;94.90;;;;;;5081740;28;20461;-83
2021/11/19 04:23:25;;;;;;;90.38;50.42;;;4.10;95.10;;;;;;5080711;28;20097;-87
2021/11/19 04:25:54;;;;;;;91.07;51.67;;;4.00;95.40;;;;;;5080000;28;20028;-85
2021/11/19 04:28:19;;;;;;;100.90;53.53;;;4.00;95.70;;;;;;5100933;28;20027;-85
2021/11/19 04:30:48;;;;;;;93.47;52.60;;;4.00;96.00;;;;;;5083806;28;20035;-88
2021/11/19 04:33:15;;;;;;;89.82;50.65;;;4.00;96.90;;;;;;5083183;28;20123;-86
2021/11/19 04:35:41;;;;;;;93.72;49.95;;;4.00;97.00;;;;;;5101433;28;20020;-85
2021/11/19 04:38:06;;;;;;;82.88;45.88;;;4.00;97.20;;;;;;5110643;28;20030;-85
2021/11/19 04:40:34;;;;;;;90.93;48.55;;;4.10;97.30;;;;;;5095720;28;20024;-84
2021/11/19 04:43:01;;;;;;;90.95;49.75;;;4.10;97.20;;;;;;5089039;28;20112;-85
2021/11/19 04:45:29;;;;;;;89.45;49.40;;;4.10;97.00;;;;;;5096343;28;20385;-86
2021/11/19 04:47:55;;;;;;;98.50;53.10;;;4.10;97.10;;;;;;5104836;28;20067;-77
2021/11/19 04:50:23;;;;;;;102.60;54.63;;;4.20;97.40;;;;;;5087542;28;20028;-77
2021/11/19 04:52:49;;;;;;;107.50;57.55;;;4.20;97.50;;;;;;5103529;28;20083;-78
2021/11/19 04:55:15;;;;;;;106.65;56.88;;;4.20;97.60;;;;;;5089062;28;20355;-73
2021/11/19 04:57:42;;;;;;;112.60;60.88;;;4.20;97.50;;;;;;5116069;28;20028;-90
2021/11/19 05:00:13;;;;;;;105.97;58.30;;;4.30;97.40;;;;;;5099205;28;20043;-86
2021/11/19 05:02:39;;;;;;;111.03;62.13;;;4.30;97.30;;;;;;5100653;28;20103;-86
2021/11/19 05:05:06;;;;;;;106.03;58.60;;;4.30;97.50;;;;;;5124921;28;20027;-81
2021/11/19 05:07:31;;;;;;;110.30;59.72;;;4.40;97.20;;;;;;5101534;28;20034;-78
2021/11/19 05:09:57;;;;;;;100.43;56.10;;;4.40;96.80;;;;;;5093277;28;20405;-87
2021/11/19 05:12:28;;;;;;;100.70;57.40;;;4.40;96.80;;;;;;5096759;28;20116;-85
2021/11/19 05:14:54;;;;;;;101.45;58.65;;;4.40;96.50;;;;;;5085088;28;20060;-85
2021/11/19 05:17:22;;;;;;;101.72;56.03;;;4.40;96.60;;;;;;5075203;28;20035;-89
2021/11/19 05:19:48;;;;;;;102.60;55.88;;;4.40;96.80;;;;;;5075239;28;20029;-85
2021/11/19 05:22:14;;;;;;;91.25;52.00;;;4.40;97.20;;;;;;5076563;28;20021;-86
2021/11/19 05:24:41;;;;;;;84.68;47.83;;;4.40;97.20;;;;;;5079583;28;20047;-89
2021/11/19 05:27:07;;;;;;;82.03;46.35;;;4.40;97.20;;;;;;5072513;28;20028;-84
2021/11/19 05:29:33;;;;;;;80.22;44.17;;;4.40;97.30;;;;;;5076618;28;20025;-85
2021/11/19 05:31:59;;;;;;;77.05;44.35;;;4.50;97.40;;;;;;5090030;28;20041;-85
2021/11/19 05:34:25;;;;;;;73.53;41.67;;;4.50;97.30;;;;;;5079357;28;20459;-86
2021/11/19 05:36:51;;;;;;;69.35;41.22;;;4.60;97.60;;;;;;5073684;28;20024;-80
2021/11/19 05:39:17;;;;;;;69.65;42.22;;;4.70;97.60;;;;;;5083611;28;20032;-86
2021/11/19 05:41:44;;;;;;;68.13;41.17;;;4.70;97.80;;;;;;5082597;28;20056;-85
2021/11/19 05:44:10;;;;;;;72.78;43.25;;;4.80;97.20;;;;;;5093501;28;20436;-86
2021/11/19 05:46:40;;;;;;;79.20;45.67;;;4.90;97.10;;;;;;5095091;28;20473;-85
2021/11/19 05:49:09;;;;;;;76.40;46.28;;;5.00;96.90;;;;;;5095239;28;20101;-89
2021/11/19 05:51:36;;;;;;;89.20;53.80;;;5.00;96.80;;;;;;5095465;28;20038;-87
2021/11/19 05:54:04;;;;;;;88.60;55.22;;;5.00;96.60;;;;;;5101846;28;20031;-90
2021/11/19 05:56:30;;;;;;;94.43;54.72;;;5.00;96.60;;;;;;5100618;28;20055;-87
2021/11/19 05:58:56;;;;;;;81.47;49.97;;;5.00;96.50;;;;;;5099907;28;20050;-90
2021/11/19 06:01:22;;;;;;;78.32;45.42;;;5.00;96.00;;;;;;5098176;28;20047;-88
2021/11/19 06:03:48;;;;;;;67.60;39.17;;;5.00;96.30;;;;;;5100429;28;20031;-88
2021/11/19 06:06:15;;;;;;;67.13;37.35;;;5.00;96.00;;;;;;5099210;28;20538;-87
2021/11/19 06:08:43;;;;;;;68.05;38.42;;;5.00;95.70;;;;;;5099505;28;20052;-89
2021/11/19 06:11:23;;;;;;;63.25;36.90;;;5.00;95.50;;;;;;5099283;28;20363;-87
2021/11/19 06:13:53;;;;;;;68.90;38.88;;;4.90;95.70;;;;;;5096185;28;20028;-88
2021/11/19 06:16:23;;;;;;;68.07;38.53;;;4.90;95.60;;;;;;5097224;28;20048;-90
2021/11/19 06:18:55;;;;;;;70.88;38.97;;;4.90;95.60;;;;;;5096016;28;20020;-89
2021/11/19 06:21:29;;;;;;;73.60;39.50;;;4.80;95.90;;;;;;5096662;28;20024;-90
2021/11/19 06:23:58;;;;;;;66.47;39.15;;;4.80;96.10;;;;;;5094788;28;20107;-87
2021/11/19 06:26:26;;;;;;;67.70;37.00;;;4.80;96.40;;;;;;5096013;28;20028;-88
2021/11/19 06:28:55;;;;;;;64.70;38.83;;;4.70;96.70;;;;;;5097751;28;20107;-87
2021/11/19 06:31:22;;;;;;;70.68;39.50;;;4.80;96.80;;;;;;5101096;28;20039;-89
2021/11/19 06:33:48;;;;;;;75.93;44.35;;;4.80;97.40;;;;;;5097846;28;20021;-89
2021/11/19 06:36:15;;;;;;;69.60;40.80;;;4.90;97.90;;;;;;5100143;28;20091;-89
2021/11/19 06:38:44;;;;;;;61.40;35.47;;;5.00;98.10;;;;;;5104677;28;20028;-89
2021/11/19 06:41:11;;;;;;;52.78;32.45;;;5.10;97.90;;;;;;5096474;28;20032;-90
2021/11/19 06:43:37;;;;;;;57.95;34.47;;;5.20;97.70;;;;;;5094474;28;20085;-91
2021/11/19 06:46:03;;;;;;;52.05;33.45;;;5.40;97.40;;;;;;5093745;28;20024;-89
2021/11/19 06:48:29;;;;;;;56.30;32.95;;;5.50;96.50;;;;;;5094695;28;20036;-89
2021/11/19 06:50:55;;;;;;;50.88;31.67;;;5.50;96.00;;;;;;5093780;28;20035;-89
2021/11/19 06:53:22;;;;;;;52.92;32.67;;;5.60;95.80;;;;;;5093322;28;20118;-89
2021/11/19 06:55:48;;;;;;;50.90;32.55;;;5.70;95.70;;;;;;5094739;28;20111;-88
2021/11/19 06:58:14;;;;;;;57.92;35.45;;;5.90;95.30;;;;;;5094614;28;20077;-91
2021/11/19 07:00:43;;;;;;;59.85;37.65;;;6.10;94.90;;;;;;5094556;28;20043;-90
2021/11/19 07:03:10;;;;;;;62.20;38.05;;;6.20;94.20;;;;;;5093858;28;20070;-91
2021/11/19 07:05:36;;;;;;;57.97;37.25;;;6.40;93.30;;;;;;5093593;28;20039;-90
2021/11/19 07:08:07;;;;;;;56.40;36.17;;;6.60;92.70;;;;;;5098276;28;20055;-91
2021/11/19 07:10:34;;;;;;;59.75;36.10;;;6.70;92.20;;;;;;5096967;28;20126;-91
2021/11/19 07:13:00;;;;;;;54.47;33.55;;;6.90;91.90;;;;;;5115446;28;20027;-89
2021/11/19 07:15:26;;;;;;;49.63;31.17;;;7.00;91.30;;;;;;5115951;28;20080;-90
2021/11/19 07:17:52;;;;;;;45.97;28.23;;;7.00;90.70;;;;;;5096844;28;20031;-89
2021/11/19 07:20:21;;;;;;;45.38;27.63;;;7.00;90.00;;;;;;5114780;28;20030;-87
2021/11/19 07:22:47;;;;;;;46.88;28.70;;;7.10;90.80;;;;;;5098423;28;20031;-89
2021/11/19 07:25:17;;;;;;;44.92;27.60;;;7.30;91.10;;;;;;5115743;28;20062;-88
2021/11/19 07:27:44;;;;;;;43.22;28.02;;;7.60;90.50;;;;;;5097110;28;20023;-87
2021/11/19 07:30:16;;;;;;;43.58;27.50;;;7.80;88.70;;;;;;5125367;28;20038;-89
2021/11/19 07:32:42;;;;;;;42.75;27.65;;;7.90;86.80;;;;;;5106254;28;20114;-87
2021/11/19 07:35:08;;;;;;;45.50;28.08;;;7.90;85.70;;;;;;5115301;28;20039;-87
2021/11/19 07:37:35;;;;;;;46.70;28.83;;;7.80;84.80;;;;;;5115492;28;20381;-87
2021/11/19 07:40:02;;;;;;;45.05;28.02;;;7.80;84.90;;;;;;5115288;28;20035;-89
2021/11/19 07:42:28;;;;;;;44.67;27.40;;;7.60;84.40;;;;;;5096409;28;20036;-88
2021/11/19 07:44:54;;;;;;;53.20;29.52;;;7.50;84.30;;;;;;5096805;28;20110;-90
2021/11/19 07:47:19;;;;;;;44.92;27.50;;;7.40;84.20;;;;;;5114138;28;20373;-89
2021/11/19 07:49:45;;;;;;;51.58;30.05;;;7.20;83.90;;;;;;5116823;28;20030;-89
2021/11/19 07:52:11;;;;;;;71.53;39.28;;;7.10;85.00;;;;;;5101776;28;20092;-91
2021/11/19 07:54:38;;;;;;;74.30;40.15;;;7.00;85.40;;;;;;5118703;28;20024;-90
2021/11/19 07:57:04;;;;;;;65.43;36.42;;;6.90;85.50;;;;;;5103038;28;20369;-88
2021/11/19 07:59:31;;;;;;;54.83;30.55;;;6.70;86.80;;;;;;5128725;28;20051;-90
2021/11/19 08:01:59;;;;;;;46.65;27.70;;;6.50;86.50;;;;;;5105506;28;20373;-91
2021/11/19 08:04:27;;;;;;;50.40;29.50;;;6.40;87.40;;;;;;5119077;28;20026;-91
2021/11/19 08:06:53;;;;;;;69.20;37.35;;;6.40;88.60;;;;;;5120067;28;20035;-91
2021/11/19 08:09:20;;;;;;;76.93;41.10;;;6.40;89.60;;;;;;5100618;28;20044;-91
2021/11/19 08:11:46;;;;;;;56.53;32.95;;;6.40;89.60;;;;;;5099959;28;20042;-88
2021/11/19 08:14:12;;;;;;;72.97;41.17;;;6.40;89.20;;;;;;5121376;28;20107;-89
2021/11/19 08:16:44;;;;;;;56.90;34.58;;;6.40;89.90;;;;;;5118983;28;20365;-90
2021/11/19 08:19:26;;;;;;;48.17;30.77;;;6.40;89.30;;;;;;5100781;28;20030;-89
2021/11/19 08:21:54;;;;;;;49.90;31.23;;;6.40;89.20;;;;;;5100332;28;20095;-91
2021/11/19 08:24:20;;;;;;;54.40;34.88;;;6.40;89.20;;;;;;5109896;28;20051;-90
2021/11/19 08:26:55;;;;;;;84.35;45.67;;;6.40;88.60;;;;;;5112860;28;20038;-85
2021/11/19 08:29:25;;;;;;;96.60;49.03;;;6.30;88.10;;;;;;5104214;28;20023;-88
2021/11/19 08:31:53;;;;;;;113.53;54.75;;;6.20;88.20;;;;;;5104052;28;20131;-87
2021/11/19 08:34:19;;;;;;;99.63;49.80;;;6.20;88.60;;;;;;5099717;28;20020;-89
2021/11/19 08:36:45;;;;;;;89.07;46.40;;;6.10;88.90;;;;;;5117820;28;20020;-89
2021/11/19 08:39:13;;;;;;;85.72;43.83;;;6.00;89.40;;;;;;5099161;28;20020;-89
2021/11/19 08:41:39;;;;;;;130.20;59.42;;;5.90;90.00;;;;;;5099287;28;20035;-88
2021/11/19 08:44:06;;;;;;;105.35;52.78;;;5.80;90.30;;;;;;5117401;28;20027;-89
2021/11/19 08:46:38;;;;;;;86.32;47.00;;;5.70;90.80;;;;;;5117837;28;20024;-89
2021/11/19 08:49:07;;;;;;;68.82;38.17;;;5.70;91.10;;;;;;5099678;28;20415;-90
2021/11/19 08:51:34;;;;;;;62.42;34.20;;;5.70;91.20;;;;;;5099451;28;20515;-90
2021/11/19 08:54:04;;;;;;;61.50;34.30;;;5.70;91.50;;;;;;5099139;28;20028;-90
2021/11/19 08:56:30;;;;;;;58.47;32.47;;;5.70;91.60;;;;;;5099426;28;20462;-88
2021/11/19 08:58:57;;;;;;;60.90;34.85;;;5.70;91.60;;;;;;5098999;28;20027;-89
2021/11/19 09:01:24;;;;;;;55.83;32.47;;;5.60;91.80;;;;;;5117235;28;20369;-91
2021/11/19 09:03:50;;;;;;;62.92;36.28;;;5.60;92.20;;;;;;5098969;28;20495;-88
2021/11/19 09:06:18;;;;;;;68.38;38.38;;;5.60;92.80;;;;;;5098799;28;20051;-88
2021/11/19 09:08:44;;;;;;;92.70;48.30;;;5.70;92.80;;;;;;5098616;28;20051;-89
2021/11/19 09:11:14;;;;;;;90.75;46.67;;;5.70;92.50;;;;;;5099341;28;20032;-89
2021/11/19 09:13:40;;;;;;;104.25;53.58;;;5.60;92.70;;;;;;5117813;28;20058;-88
2021/11/19 09:16:09;;;;;;;87.03;46.70;;;5.60;93.10;;;;;;5117397;28;20020;-87
2021/11/19 09:18:49;;;;;;;98.57;48.53;;;5.50;93.40;;;;;;5108178;28;20540;-89
2021/11/19 09:21:15;;;;;;;96.68;50.47;;;5.40;94.00;;;;;;5126480;28;20381;-91
2021/11/19 09:23:59;;;;;;;101.40;47.58;;;5.40;94.50;;;;;;5099487;28;20107;-91
2021/11/19 09:26:41;;;;;;;87.15;41.88;;;5.40;95.00;;;;;;5099180;28;20415;-90
2021/11/19 09:29:11;;;;;;;106.10;51.33;;;5.40;95.80;;;;;;5108594;28;20023;-90
2021/11/19 09:31:39;;;;;;;94.85;49.03;;;5.40;96.00;;;;;;5106431;28;20055;-90
2021/11/19 09:34:07;;;;;;;73.45;41.10;;;5.30;96.10;;;;;;5100175;28;20049;-88
2021/11/19 09:36:33;;;;;;;76.28;44.75;;;5.30;96.60;;;;;;5118739;28;20034;-90
2021/11/19 09:38:59;;;;;;;64.40;37.90;;;5.20;97.20;;;;;;5100678;28;20492;-89
2021/11/19 09:41:36;;;;;;;87.95;50.92;;;5.20;97.50;;;;;;5124667;28;20053;-91
2021/11/19 09:44:33;;;;;;;97.55;52.50;;;5.20;97.60;;;;;;5103858;28;20385;-89
2021/11/19 09:46:58;;;;;;;;;;;5.20;97.80;;;;;;5101174;28;20028;-90
2021/11/19 09:50:05;;;;;;;103.17;52.70;;;5.20;97.40;;;;;;5098031;28;20420;-90
2021/11/19 09:52:48;;;;;;;105.05;54.22;;;5.20;97.80;;;;;;5078179;28;20306;-87
2021/11/19 09:55:37;;;;;;;91.70;53.33;;;5.20;98.50;;;;;;5076399;28;20419;-89
2021/11/19 09:58:24;;;;;;;81.22;46.58;;;5.20;98.90;;;;;;5080816;28;20035;-87
2021/11/19 10:01:08;;;;;;;101.03;57.20;;;5.10;99.00;;;;;;5116952;28;20477;-91
2021/11/19 10:03:52;;;;;;;106.90;57.72;;;5.20;99.50;;;;;;5117186;28;20028;-90
2021/11/19 10:06:21;;;;;;;128.90;70.75;;;5.20;99.40;;;;;;5098454;28;20052;-91
2021/11/19 10:08:59;;;;;;;127.57;70.32;;;5.30;99.70;;;;;;5116313;28;20047;-88
2021/11/19 10:12:00;;;;;;;103.05;58.75;;;5.30;99.90;;;;;;5098727;28;20122;-90
2021/11/19 10:14:25;;;;;;;82.53;49.28;;;5.30;99.90;;;;;;5085700;28;20095;-90
2021/11/19 10:17:06;;;;;;;75.07;43.53;;;5.40;99.90;;;;;;5098752;28;20039;-88
2021/11/19 10:19:32;;;;;;;61.78;39.13;;;5.40;99.80;;;;;;5116788;28;20027;-89
2021/11/19 10:22:25;;;;;;;58.53;36.25;;;5.40;99.70;;;;;;5191360;22;20043;-89
2021/11/19 10:25:08;;;;;;;62.70;35.88;;;5.40;99.70;;;;;;5105425;28;20029;-91
2021/11/19 10:27:56;;;;;;;61.83;35.50;;;5.40;99.90;;;;;;5123949;28;20437;-89
2021/11/19 10:30:31;;;;;;;77.53;42.78;;;5.50;99.90;;;;;;5105669;28;20088;-89
2021/11/19 10:33:04;;;;;;;111.32;56.25;;;5.40;99.90;;;;;;5104312;28;20366;-89
2021/11/19 10:35:50;;;;;;;87.32;46.80;;;5.40;99.70;;;;;;5123125;28;20023;-90
2021/11/19 10:38:23;;;;;;;123.57;57.28;;;5.40;99.90;;;;;;5105991;28;20016;-89
2021/11/19 10:41:18;;;;;;;131.00;63.50;;;5.40;99.90;;;;;;5104573;28;20023;-90
2021/11/19 10:44:07;;;;;;;158.85;73.20;;;5.50;99.90;;;;;;5124586;28;20024;-89
2021/11/19 10:46:58;;;;;;;167.57;77.28;;;5.50;99.90;;;;;;5106361;28;20034;-89
2021/11/19 10:49:51;;;;;;;131.20;63.75;;;5.50;99.90;;;;;;5123151;28;20024;-90
2021/11/19 10:52:48;;;;;;;120.22;61.05;;;5.50;99.90;;;;;;5119617;28;20039;-88
2021/11/19 10:55:33;;;;;;;141.20;65.72;;;5.50;99.90;;;;;;5098502;28;20369;-88
2021/11/19 10:58:14;;;;;;;140.27;68.25;;;5.50;99.90;;;;;;5117798;28;20051;-85
2021/11/19 11:00:58;;;;;;;111.88;57.17;;;5.50;99.90;;;;;;5108576;28;20039;-88
2021/11/19 11:03:29;;;;;;;139.50;66.00;;;5.50;99.90;;;;;;5103867;28;20118;-86
2021/11/19 11:05:59;;;;;;;130.63;63.63;;;5.50;99.90;;;;;;5097385;28;20020;-88
2021/11/19 11:08:28;;;;;;;112.07;56.08;;;5.50;99.90;;;;;;5121507;28;20048;-87
2021/11/19 11:10:56;;;;;;;98.88;53.38;;;5.50;99.90;;;;;;5104910;28;20036;-86
2021/11/19 11:13:42;;;;;;;123.43;64.55;;;5.50;99.90;;;;;;5116406;28;20399;-88
2021/11/19 11:16:25;;;;;;;117.90;62.05;;;5.50;99.90;;;;;;5096455;28;20026;-86
2021/11/19 11:19:13;;;;;;;108.55;56.50;;;5.50;99.90;;;;;;5116422;28;20373;-87
2021/11/19 11:21:40;;;;;;;116.95;59.22;;;5.40;99.90;;;;;;5115482;28;20071;-87
2021/11/19 11:24:23;;;;;;;139.88;68.75;;;5.40;99.90;;;;;;5095398;28;20083;-87
2021/11/19 11:27:00;;;;;;;113.38;59.67;;;5.50;99.90;;;;;;5114763;28;20373;-86
2021/11/19 11:29:38;;;;;;;115.53;62.08;;;5.50;99.90;;;;;;5096642;28;20032;-87
2021/11/19 11:32:19;;;;;;;105.70;57.17;;;5.50;99.90;;;;;;5114260;28;20028;-87
2021/11/19 11:34:54;;;;;;;113.65;57.70;;;5.50;99.90;;;;;;5096802;28;20496;-86
2021/11/19 11:37:44;;;;;;;103.90;55.65;;;5.50;99.90;;;;;;5114848;28;20028;-89
2021/11/19 11:40:27;;;;;;;129.30;62.30;;;5.50;99.90;;;;;;5096606;28;20392;-88
2021/11/19 11:43:26;;;;;;;107.00;55.20;;;5.50;99.90;;;;;;5114804;28;20457;-90
2021/11/19 11:45:55;;;;;;;107.43;53.13;;;5.40;99.90;;;;;;5096577;28;20089;-89
2021/11/19 11:48:49;;;;;;;72.43;40.15;;;5.40;99.90;;;;;;5096464;28;20039;-88
2021/11/19 11:51:18;;;;;;;77.95;41.97;;;5.40;99.90;;;;;;5096480;28;20469;-87
2021/11/19 11:54:14;;;;;;;81.97;45.45;;;5.40;99.90;;;;;;5096578;28;20047;-88
2021/11/19 11:56:44;;;;;;;87.40;49.20;;;5.40;99.90;;;;;;5116549;28;20351;-88
2021/11/19 11:59:16;;;;;;;84.78;46.42;;;5.50;99.90;;;;;;5115284;28;20453;-87
2021/11/19 12:01:58;;;;;;;76.60;42.97;;;5.50;99.90;;;;;;5098788;28;20029;-87
2021/11/19 12:04:41;;;;;;;72.38;41.40;;;5.60;99.90;;;;;;5125609;28;20125;-92
2021/11/19 12:07:44;;;;;;;66.55;39.30;;;5.60;99.90;;;;;;5105655;28;20027;-87
2021/11/19 12:10:37;;;;;;;60.45;37.63;;;5.60;99.90;;;;;;5100714;28;20042;-85
2021/11/19 12:13:25;;;;;;;66.30;38.15;;;5.60;99.90;;;;;;5099685;28;20024;-81
2021/11/19 12:16:19;;;;;;;73.07;40.80;;;5.60;99.90;;;;;;5103198;28;20020;-86
2021/11/19 12:19:00;;;;;;;90.88;45.65;;;5.60;99.90;;;;;;5099526;28;20100;-84
2021/11/19 12:21:38;;;;;;;146.20;66.47;;;5.60;99.90;;;;;;5099558;28;20469;-87
2021/11/19 12:24:25;;;;;;;144.55;66.05;;;5.60;99.90;;;;;;5101745;28;20031;-88
2021/11/19 12:27:25;;;;;;;164.70;72.50;;;5.60;99.90;;;;;;5122940;28;20011;-89
2021/11/19 12:29:54;;;;;;;141.00;64.25;;;5.60;99.90;;;;;;5080911;28;20035;-89
2021/11/19 12:32:38;;;;;;;155.18;68.10;;;5.60;99.90;;;;;;5130845;28;20354;-90
2021/11/19 12:35:54;;;;;;;149.25;67.15;;;5.60;99.90;;;;;;5105815;28;20015;-89
2021/11/19 12:38:30;;;;;;;151.60;65.97;;;5.60;99.90;;;;;;5014323;28;20026;-90
2021/11/19 12:41:16;;;;;;;162.23;70.45;;;5.60;99.90;;;;;;5122094;28;20035;-89
2021/11/19 12:43:54;;;;;;;156.30;66.78;;;5.50;99.90;;;;;;5127091;28;20023;-89
2021/11/19 12:46:32;;;;;;;115.30;57.30;;;5.50;99.90;;;;;;5125810;28;20046;-90
2021/11/19 12:49:25;;;;;;;168.23;75.68;;;5.50;99.90;;;;;;5109555;28;20068;-91
2021/11/19 12:52:14;;;;;;;151.93;68.95;;;5.50;99.90;;;;;;5109255;28;20074;-88
2021/11/19 12:54:46;;;;;;;140.43;66.18;;;5.50;99.90;;;;;;5109064;28;20080;-91
2021/11/19 12:57:36;;;;;;;170.35;74.63;;;5.50;99.90;;;;;;5131367;28;20031;-91